createdAt,value
2023-05-28T00:01:30.230Z,99309.73
2023-05-28T00:06:31.961Z,99301.84
2023-05-28T00:11:33.783Z,99300.94
2023-05-28T00:16:38.662Z,99297.31
2023-05-28T00:21:40.523Z,99294.70
2023-05-28T00:26:42.249Z,99288.60
2023-05-28T00:31:44.095Z,99286.31
2023-05-28T00:36:46.097Z,99284.66
2023-05-28T00:41:48.090Z,99283.05
2023-05-28T00:46:50.597Z,99273.86
2023-05-28T00:51:53.175Z,99273.96
2023-05-28T00:56:55.362Z,99276.77
2023-05-28T01:01:58.288Z,99272.14
2023-05-28T01:07:01.229Z,99269.77
2023-05-28T01:12:04.757Z,99262.10
2023-05-28T01:17:07.406Z,99254.70
2023-05-28T01:22:16.730Z,99250.15
2023-05-28T01:27:19.624Z,99242.77
2023-05-28T01:32:21.545Z,99245.01
2023-05-28T01:37:25.778Z,99249.29
2023-05-28T01:42:29.270Z,99247.06
2023-05-28T01:47:41.917Z,99252.52
2023-05-28T01:52:45.375Z,99257.16
2023-05-28T01:57:47.188Z,99253.77
2023-05-28T02:02:49.177Z,99254.21
2023-05-28T02:07:53.531Z,99250.55
2023-05-28T02:12:55.774Z,99253.05
2023-05-28T02:17:57.693Z,99248.87
2023-05-28T02:22:59.951Z,99239.96
2023-05-28T02:28:01.805Z,99240.46
2023-05-28T02:33:04.541Z,99237.85
2023-05-28T02:38:07.089Z,99241.63
2023-05-28T02:43:08.922Z,99239.43
2023-05-28T02:48:10.841Z,99241.52
2023-05-28T02:53:12.722Z,99242.05
2023-05-28T02:58:15.747Z,99244.20
2023-05-28T03:03:17.938Z,99240.15
2023-05-28T03:08:20.137Z,99236.36
2023-05-28T03:13:22.053Z,99228.91
2023-05-28T03:18:24.141Z,99230.02
2023-05-28T03:23:26.057Z,99223.75
2023-05-28T03:28:40.220Z,99223.55
2023-05-28T03:33:57.841Z,99220.08
2023-05-28T03:38:59.504Z,99218.44
2023-05-28T03:44:01.637Z,99213.41
2023-05-28T03:49:03.881Z,99217.13
2023-05-28T03:54:05.990Z,99219.91
2023-05-28T03:59:07.820Z,99223.39
2023-05-28T04:07:13.293Z,99221.00
2023-05-28T04:12:15.175Z,99216.77
2023-05-28T04:17:17.287Z,99220.98
2023-05-28T04:22:19.061Z,99218.80
2023-05-28T04:27:22.430Z,99219.98
2023-05-28T04:32:25.195Z,99217.96
2023-05-28T04:37:26.930Z,99215.38
2023-05-28T04:42:29.296Z,99212.14
2023-05-28T04:47:31.328Z,99211.96
2023-05-28T04:52:36.672Z,99209.87
2023-05-28T04:57:38.502Z,99208.27
2023-05-28T05:02:42.861Z,99207.85
2023-05-28T05:07:44.971Z,99204.50
2023-05-28T05:12:48.678Z,99206.13
2023-05-28T05:17:50.538Z,99208.92
2023-05-28T05:22:52.381Z,99206.23
2023-05-28T05:27:54.533Z,99205.52
2023-05-28T05:32:56.395Z,99207.89
2023-05-28T05:37:59.750Z,99206.52
2023-05-28T05:43:24.069Z,99201.04
2023-05-28T05:48:28.973Z,99201.30
2023-05-28T05:53:30.916Z,99197.21
2023-05-28T05:58:33.534Z,99200.21
2023-05-28T06:03:36.359Z,99196.61
2023-05-28T06:08:57.198Z,99198.51
2023-05-28T06:14:11.282Z,99197.70
2023-05-28T06:19:13.107Z,99192.38
2023-05-28T06:24:15.067Z,99195.29
2023-05-28T06:29:19.597Z,99197.57
2023-05-28T06:34:21.425Z,99195.67
2023-05-28T06:39:23.901Z,99197.66
2023-05-28T06:44:27.545Z,99194.71
2023-05-28T06:49:32.718Z,99198.55
2023-05-28T06:54:34.600Z,99197.24
2023-05-28T06:59:36.523Z,99194.73
2023-05-28T07:04:45.376Z,99187.85
2023-05-28T07:09:51.860Z,99178.52
2023-05-28T07:14:54.947Z,99178.55
2023-05-28T07:19:58.244Z,99180.94
2023-05-28T07:25:21.533Z,99174.17
2023-05-28T07:30:23.325Z,99172.45
2023-05-28T07:35:29.339Z,99167.48
2023-05-28T07:40:31.118Z,99163.96
2023-05-28T07:45:45.100Z,99166.83
2023-05-28T07:50:47.137Z,99161.40
2023-05-28T07:56:01.582Z,99156.64
2023-05-28T08:01:10.184Z,99155.52
2023-05-28T08:06:12.674Z,99155.46
2023-05-28T08:11:15.619Z,99150.48
2023-05-28T08:16:26.681Z,99146.80
2023-05-28T08:21:47.556Z,99153.16
2023-05-28T08:26:50.153Z,99148.77
2023-05-28T08:31:52.625Z,99141.69
2023-05-28T08:37:12.020Z,99141.55
2023-05-28T08:42:29.747Z,99144.27
2023-05-28T08:47:34.315Z,99138.98
2023-05-28T08:52:45.888Z,99135.09
2023-05-28T08:57:48.432Z,99136.41
2023-05-28T09:02:50.973Z,99133.52
2023-05-28T09:07:54.060Z,99128.90
2023-05-28T09:13:01.197Z,99120.26
2023-05-28T09:18:06.207Z,99113.88
2023-05-28T09:23:09.821Z,99106.45
2023-05-28T09:28:30.959Z,99103.84
2023-05-28T09:33:43.281Z,99094.77
2023-05-28T09:38:45.435Z,99090.59
2023-05-28T09:43:55.800Z,99089.11
2023-05-28T09:48:58.033Z,99084.46
2023-05-28T09:54:01.858Z,99082.23
2023-05-28T09:59:04.185Z,99071.66
2023-05-28T10:04:09.904Z,99070.54
2023-05-28T10:09:15.854Z,99072.46
2023-05-28T10:14:18.597Z,99072.27
2023-05-28T10:19:21.433Z,99069.52
2023-05-28T10:24:23.722Z,99070.85
2023-05-28T10:29:38.330Z,99069.58
2023-05-28T10:34:40.110Z,99063.00
2023-05-28T10:39:48.882Z,99058.61
2023-05-28T10:45:11.588Z,99057.02
2023-05-28T10:50:18.739Z,99056.45
2023-05-28T10:55:21.721Z,99058.42
2023-05-28T11:00:25.662Z,99056.46
2023-05-28T11:05:27.461Z,99054.89
2023-05-28T11:10:31.132Z,99053.13
2023-05-28T11:15:34.255Z,99057.16
2023-05-28T11:20:36.543Z,99048.09
2023-05-28T11:25:43.278Z,99050.02
2023-05-28T11:30:44.962Z,99046.98
2023-05-28T11:35:46.701Z,99043.74
2023-05-28T11:40:48.422Z,99037.33
2023-05-28T11:45:51.170Z,99022.59
2023-05-28T11:51:02.103Z,99028.02
2023-05-28T11:56:04.103Z,99023.48
2023-05-28T12:01:06.142Z,99015.98
2023-05-28T12:06:07.938Z,99011.52
2023-05-28T12:11:10.725Z,99010.42
2023-05-28T12:16:14.050Z,99008.27
2023-05-28T12:21:20.300Z,99016.86
2023-05-28T12:26:22.935Z,99006.88
2023-05-28T12:31:30.978Z,99010.23
2023-05-28T12:36:34.118Z,98999.07
2023-05-28T12:41:36.394Z,98997.67
2023-05-28T12:46:38.264Z,98993.81
2023-05-28T12:51:40.628Z,98985.75
2023-05-28T12:56:42.621Z,98981.39
2023-05-28T13:01:44.764Z,98974.83
2023-05-28T13:06:46.596Z,98973.27
2023-05-28T13:11:48.482Z,98975.45
2023-05-28T13:16:50.211Z,98971.17
2023-05-28T13:21:52.318Z,98965.81
2023-05-28T13:26:54.047Z,98958.30
2023-05-28T13:31:55.814Z,98953.13
2023-05-28T13:36:57.649Z,98947.31
2023-05-28T13:41:59.970Z,98947.97
2023-05-28T13:47:03.116Z,98941.95
2023-05-28T13:52:05.845Z,98934.08
2023-05-28T13:57:07.671Z,98932.33
2023-05-28T14:02:09.412Z,98932.31
2023-05-28T14:07:11.462Z,98929.70
2023-05-28T14:12:19.871Z,98924.19
2023-05-28T14:17:23.928Z,98919.07
2023-05-28T14:22:26.473Z,98916.67
2023-05-28T14:27:28.510Z,98919.54
2023-05-28T14:32:30.532Z,98915.02
2023-05-28T14:37:32.432Z,98908.90
2023-05-28T14:42:34.303Z,98903.64
2023-05-28T14:47:36.552Z,98898.03
2023-05-28T14:52:38.725Z,98898.67
2023-05-28T14:57:40.725Z,98892.40
2023-05-28T15:02:43.248Z,98894.92
2023-05-28T15:07:45.177Z,98891.61
2023-05-28T15:12:46.991Z,98888.94
2023-05-28T15:17:48.697Z,98889.48
2023-05-28T15:22:50.456Z,98888.55
2023-05-28T15:27:55.520Z,98886.42
2023-05-28T15:32:59.473Z,98881.13
2023-05-28T15:38:01.583Z,98881.91
2023-05-28T15:43:07.202Z,98875.45
2023-05-28T15:48:09.030Z,98874.09
2023-05-28T15:53:11.257Z,98873.19
2023-05-28T15:58:13.390Z,98872.05
2023-05-28T16:03:16.217Z,98869.98
2023-05-28T16:08:18.569Z,98869.77
2023-05-28T16:13:25.124Z,98867.80
2023-05-28T16:18:29.442Z,98869.48
2023-05-28T16:23:32.409Z,98869.77
2023-05-28T16:28:34.776Z,98871.40
2023-05-28T16:33:36.574Z,98865.45
2023-05-28T16:38:38.502Z,98868.80
2023-05-28T16:43:40.993Z,98874.05
2023-05-28T16:48:43.231Z,98868.90
2023-05-28T16:53:45.176Z,98871.02
2023-05-28T16:58:48.309Z,98871.14
2023-05-28T17:03:50.509Z,98875.52
2023-05-28T17:08:52.510Z,98877.85
2023-05-28T17:13:54.325Z,98879.19
2023-05-28T17:18:56.438Z,98882.17
2023-05-28T17:23:58.965Z,98877.27
2023-05-28T17:29:00.896Z,98874.61
2023-05-28T17:34:03.022Z,98879.41
2023-05-28T17:39:05.106Z,98878.14
2023-05-28T17:44:08.115Z,98877.80
2023-05-28T17:49:09.848Z,98879.81
2023-05-28T17:54:12.702Z,98880.92
2023-05-28T17:59:15.007Z,98883.52
2023-05-28T18:04:16.818Z,98880.77
2023-05-28T18:09:20.209Z,98887.25
2023-05-28T18:14:22.054Z,98891.67
2023-05-28T18:19:23.871Z,98897.16
2023-05-28T18:24:25.841Z,98903.27
2023-05-28T18:29:27.579Z,98907.17
2023-05-28T18:34:29.293Z,98912.25
2023-05-28T18:39:31.031Z,98916.63
2023-05-28T18:44:33.469Z,98922.62
2023-05-28T18:49:37.280Z,98924.09
2023-05-28T18:54:38.999Z,98927.94
2023-05-28T18:59:42.248Z,98932.09
2023-05-28T19:04:44.220Z,98934.32
2023-05-28T19:09:47.492Z,98937.32
2023-05-28T19:14:49.889Z,98944.46
2023-05-28T19:19:51.665Z,98947.63
2023-05-28T19:25:01.028Z,98956.46
2023-05-28T19:30:04.866Z,98955.20
2023-05-28T19:35:07.284Z,98960.85
2023-05-28T19:40:09.879Z,98963.88
2023-05-28T19:45:12.348Z,98967.40
2023-05-28T19:50:14.081Z,98964.17
2023-05-28T19:55:16.009Z,98959.55
2023-05-28T20:00:18.223Z,98964.61
2023-05-28T20:05:20.018Z,98970.50
2023-05-28T20:10:21.853Z,98971.69
2023-05-28T20:15:23.746Z,98976.20
2023-05-28T20:20:26.023Z,98981.21
2023-05-28T20:25:30.142Z,98983.63
2023-05-28T20:30:32.409Z,98974.80
2023-05-28T20:35:34.433Z,98971.33
2023-05-28T20:40:36.230Z,98974.73
2023-05-28T20:45:39.817Z,98975.05
2023-05-28T20:50:41.868Z,98974.00
2023-05-28T20:55:43.629Z,98974.52
2023-05-28T21:00:45.316Z,98972.41
2023-05-28T21:05:47.062Z,98969.73
2023-05-28T21:10:53.908Z,98980.71
2023-05-28T21:16:02.541Z,98986.70
2023-05-28T21:21:04.540Z,98988.05
2023-05-28T21:26:06.281Z,98983.52
2023-05-28T21:31:08.068Z,98980.88
2023-05-28T21:36:10.136Z,98979.60
2023-05-28T21:41:15.692Z,98981.04
2023-05-28T21:46:18.725Z,98978.66
2023-05-28T21:51:21.873Z,98978.81
2023-05-28T21:56:23.622Z,98979.91
2023-05-28T22:01:25.699Z,98983.91
2023-05-28T22:06:27.509Z,98985.39
2023-05-28T22:11:29.338Z,98984.96
2023-05-28T22:16:32.111Z,98993.13
2023-05-28T22:21:33.950Z,98997.76
2023-05-28T22:26:35.792Z,98998.31
2023-05-28T22:31:37.550Z,98997.16
2023-05-28T22:36:39.538Z,98997.55
2023-05-28T22:41:41.344Z,98994.98
2023-05-28T22:46:43.190Z,98994.05
2023-05-28T22:51:46.101Z,98997.60
2023-05-28T22:56:48.198Z,98996.69
2023-05-28T23:01:50.668Z,98996.52
2023-05-28T23:06:52.943Z,98997.38
2023-05-28T23:11:56.040Z,99000.02
2023-05-28T23:16:58.885Z,98998.09
2023-05-28T23:22:00.700Z,99000.26
2023-05-28T23:27:02.717Z,98999.20
2023-05-28T23:32:06.663Z,98997.91
2023-05-28T23:37:08.388Z,98995.84
2023-05-28T23:42:11.115Z,98990.68
2023-05-28T23:47:15.407Z,98992.11
2023-05-28T23:52:19.840Z,98994.48
2023-05-28T23:57:21.637Z,98988.44
